Time;durP1;ratioP1;P1;durP2;ratioP2;P2;SDS_P1;SDS_P2;PMS_P1;PMS_P2;Temp;Humidity;BMP_temperature;BMP_pressure;BME280_temperature;BME280_humidity;BME280_pressure;Samples;Min_cycle;Max_cycle;Signal;HPM_P1;HPM_P2
2022/06/18 00:00:58;;;;;;;2.50;1.05;;;;;;;;;;5070687;28;20088;-86
2022/06/18 00:03:25;;;;;;;1.23;1.00;;;;;;;;;;5056696;28;20025;-87
2022/06/18 00:05:52;;;;;;;1.85;1.00;;;;;;;;;;5066097;28;20515;-86
2022/06/18 00:08:23;;;;;;;1.10;1.00;;;;;;;;;;5070028;28;20402;-87
2022/06/18 00:10:53;;;;;;;2.15;1.20;;;;;;;;;;5069024;28;20572;-87
2022/06/18 00:13:40;;;;;;;1.25;1.00;;;;;;;;;;5069963;28;20123;-87
2022/06/18 00:16:09;;;;;;;1.20;1.10;;;;;;;;;;5044129;28;20017;-87
2022/06/18 00:18:35;;;;;;;1.35;0.95;;;;;;;;;;5032460;28;20033;-87
2022/06/18 00:21:02;;;;;;;1.67;1.00;;;;;;;;;;5052515;28;20036;-86
2022/06/18 00:23:29;;;;;;;1.35;1.10;;;;;;;;;;5054211;28;20021;-87
2022/06/18 00:25:55;;;;;;;1.23;1.10;;;;;;;;;;5068878;28;20374;-87
2022/06/18 00:28:26;;;;;;;2.45;1.55;;;;;;;;;;5053478;28;20074;-87
2022/06/18 00:30:52;;;;;;;2.78;1.20;;;;;;;;;;5053075;28;20013;-87
2022/06/18 00:33:19;;;;;;;3.33;1.33;;;;;;;;;;5068591;28;20053;-87
2022/06/18 00:35:46;;;;;;;1.50;1.23;;;;;;;;;;5068209;28;20059;-87
2022/06/18 00:38:15;;;;;;;1.60;1.02;;;;;;;;;;5053035;28;20135;-86
2022/06/18 00:40:43;;;;;;;1.38;0.98;;;;;;;;;;5071829;28;20107;-86
2022/06/18 00:43:16;;;;;;;1.23;1.13;;;;;;;;;;5053566;28;20430;-87
2022/06/18 00:45:42;;;;;;;1.30;1.10;;;;;;;;;;5052861;28;20025;-87
2022/06/18 00:48:08;;;;;;;1.33;0.90;;;;;;;;;;5068844;28;20029;-87
2022/06/18 00:50:34;;;;;;;2.90;1.25;;;;;;;;;;5052167;28;20079;-87
2022/06/18 00:53:07;;;;;;;1.52;1.25;;;;;;;;;;5052575;28;20076;-87
2022/06/18 00:55:52;;;;;;;2.38;1.17;;;;;;;;;;5068342;28;20130;-87
2022/06/18 00:58:23;;;;;;;2.80;1.05;;;;;;;;;;5053004;28;20028;-87
2022/06/18 01:00:50;;;;;;;1.45;0.90;;;;;;;;;;5067990;28;20118;-87
2022/06/18 01:03:31;;;;;;;2.67;1.20;;;;;;;;;;5052846;28;20028;-87
2022/06/18 01:05:58;;;;;;;1.20;1.10;;;;;;;;;;5051831;28;20036;-88
2022/06/18 01:08:26;;;;;;;1.63;1.08;;;;;;;;;;5050651;28;20032;-87
2022/06/18 01:10:54;;;;;;;1.17;1.00;;;;;;;;;;5051825;28;20489;-87
2022/06/18 01:13:22;;;;;;;1.40;1.30;;;;;;;;;;5053840;28;20037;-86
2022/06/18 01:15:49;;;;;;;1.38;1.27;;;;;;;;;;5058062;28;20025;-87
2022/06/18 01:18:15;;;;;;;3.10;0.95;;;;;;;;;;5050816;28;20075;-88
2022/06/18 01:20:48;;;;;;;2.00;1.10;;;;;;;;;;5050700;28;20404;-87
2022/06/18 01:23:22;;;;;;;1.60;1.20;;;;;;;;;;5052867;28;20029;-87
2022/06/18 01:25:48;;;;;;;1.65;1.17;;;;;;;;;;5055053;28;20111;-87
2022/06/18 01:28:16;;;;;;;3.03;1.33;;;;;;;;;;5054791;28;20028;-87
2022/06/18 01:30:43;;;;;;;2.47;1.30;;;;;;;;;;5068713;28;20036;-87
2022/06/18 01:33:10;;;;;;;1.17;1.00;;;;;;;;;;5065456;28;20029;-87
2022/06/18 01:35:37;;;;;;;3.97;1.00;;;;;;;;;;5056093;28;20056;-87
2022/06/18 01:38:04;;;;;;;2.25;1.00;;;;;;;;;;5056153;28;20021;-87
2022/06/18 01:40:50;;;;;;;8.43;1.55;;;;;;;;;;5056191;28;20060;-87
2022/06/18 01:43:18;;;;;;;1.40;1.30;;;;;;;;;;5057283;28;20029;-87
2022/06/18 01:45:46;;;;;;;3.50;1.60;;;;;;;;;;5053833;28;20115;-87
2022/06/18 01:48:23;;;;;;;1.25;1.15;;;;;;;;;;5053230;28;20120;-87
2022/06/18 01:51:10;;;;;;;2.70;1.10;;;;;;;;;;5053197;28;20082;-87
2022/06/18 01:53:41;;;;;;;1.00;0.90;;;;;;;;;;5052243;28;20029;-86
2022/06/18 01:56:10;;;;;;;2.67;1.25;;;;;;;;;;5051322;28;20060;-86
2022/06/18 01:58:42;;;;;;;2.80;1.25;;;;;;;;;;5056004;28;20013;-87
2022/06/18 02:01:11;;;;;;;3.25;1.20;;;;;;;;;;5055385;28;20032;-87
2022/06/18 02:03:37;;;;;;;1.50;1.38;;;;;;;;;;5054752;28;20025;-88
2022/06/18 02:06:04;;;;;;;2.33;1.27;;;;;;;;;;5055587;28;20082;-87
2022/06/18 02:08:30;;;;;;;1.15;1.02;;;;;;;;;;5055517;28;20029;-87
2022/06/18 02:10:59;;;;;;;3.38;1.30;;;;;;;;;;5054221;28;20044;-87
2022/06/18 02:13:32;;;;;;;1.92;1.27;;;;;;;;;;5055657;28;20043;-86
2022/06/18 02:15:58;;;;;;;3.38;1.33;;;;;;;;;;5054386;28;20027;-87
2022/06/18 02:18:25;;;;;;;1.77;1.13;;;;;;;;;;5054076;28;20040;-87
2022/06/18 02:20:52;;;;;;;2.80;1.40;;;;;;;;;;5053740;28;20024;-87
2022/06/18 02:23:19;;;;;;;1.30;1.20;;;;;;;;;;5055458;28;20116;-86
2022/06/18 02:25:46;;;;;;;2.45;1.35;;;;;;;;;;5070919;28;20456;-87
2022/06/18 02:28:15;;;;;;;1.30;1.02;;;;;;;;;;5070888;28;20037;-86
2022/06/18 02:30:41;;;;;;;1.60;1.00;;;;;;;;;;5055122;28;20029;-86
2022/06/18 02:33:20;;;;;;;1.15;1.05;;;;;;;;;;5054948;28;20036;-87
2022/06/18 02:35:47;;;;;;;1.55;1.30;;;;;;;;;;5070473;28;20083;-86
2022/06/18 02:38:18;;;;;;;2.35;1.30;;;;;;;;;;5054742;28;20525;-87
2022/06/18 02:40:45;;;;;;;3.42;1.30;;;;;;;;;;5070268;28;20029;-86
2022/06/18 02:43:11;;;;;;;1.33;1.20;;;;;;;;;;5055180;28;20051;-87
2022/06/18 02:45:38;;;;;;;2.17;1.20;;;;;;;;;;5070368;28;20419;-87
2022/06/18 02:48:05;;;;;;;1.42;1.05;;;;;;;;;;5055545;28;20017;-87
2022/06/18 02:50:33;;;;;;;2.30;1.33;;;;;;;;;;5054984;28;20032;-87
2022/06/18 02:53:02;;;;;;;1.33;1.23;;;;;;;;;;5054766;28;20113;-87
2022/06/18 02:55:31;;;;;;;3.00;1.33;;;;;;;;;;5054831;28;20139;-86
2022/06/18 02:58:01;;;;;;;1.55;1.38;;;;;;;;;;5054285;28;20025;-87
2022/06/18 03:00:27;;;;;;;1.25;1.15;;;;;;;;;;5054413;28;20017;-87
2022/06/18 03:02:53;;;;;;;2.78;1.30;;;;;;;;;;5054569;28;20159;-86
2022/06/18 03:05:21;;;;;;;1.15;1.02;;;;;;;;;;5054438;28;20059;-86
2022/06/18 03:07:47;;;;;;;2.47;1.00;;;;;;;;;;5052940;28;20082;-86
2022/06/18 03:12:59;;;;;;;1.13;1.02;;;;;;;;;;5054511;28;20167;-86
2022/06/18 03:15:25;;;;;;;2.90;1.13;;;;;;;;;;5065677;28;20046;-86
2022/06/18 03:17:51;;;;;;;1.88;1.30;;;;;;;;;;5032651;28;20389;-86
2022/06/18 03:20:18;;;;;;;3.03;1.38;;;;;;;;;;5048803;28;20056;-87
2022/06/18 03:22:44;;;;;;;2.63;1.40;;;;;;;;;;5077095;28;20029;-85
2022/06/18 03:25:10;;;;;;;3.10;1.30;;;;;;;;;;5056907;28;20035;-86
2022/06/18 03:27:37;;;;;;;1.42;1.33;;;;;;;;;;5069733;28;20024;-86
2022/06/18 03:30:04;;;;;;;1.50;1.30;;;;;;;;;;5065123;28;20044;-87
2022/06/18 03:32:30;;;;;;;2.30;1.25;;;;;;;;;;5069993;28;20117;-86
2022/06/18 03:34:56;;;;;;;3.03;1.30;;;;;;;;;;5069541;28;20074;-86
2022/06/18 03:37:22;;;;;;;1.63;1.38;;;;;;;;;;5053874;28;20021;-86
2022/06/18 03:39:48;;;;;;;2.53;1.30;;;;;;;;;;5069659;28;20024;-87
2022/06/18 03:42:14;;;;;;;1.38;1.20;;;;;;;;;;5054279;28;20396;-86
2022/06/18 03:44:40;;;;;;;1.92;1.40;;;;;;;;;;5072271;28;20536;-86
2022/06/18 03:47:07;;;;;;;4.50;1.30;;;;;;;;;;5055405;28;20064;-86
2022/06/18 03:49:34;;;;;;;1.23;1.13;;;;;;;;;;5070578;28;20025;-86
2022/06/18 03:52:01;;;;;;;1.80;1.38;;;;;;;;;;5070098;28;20037;-86
2022/06/18 03:54:27;;;;;;;1.80;1.35;;;;;;;;;;5071006;28;20024;-86
2022/06/18 03:56:53;;;;;;;2.45;1.55;;;;;;;;;;5054678;28;20086;-87
2022/06/18 03:59:20;;;;;;;3.05;1.35;;;;;;;;;;5063072;28;20017;-86
2022/06/18 04:01:46;;;;;;;1.45;1.17;;;;;;;;;;5092201;28;20033;-86
2022/06/18 04:04:13;;;;;;;3.85;1.42;;;;;;;;;;5071746;28;20041;-86
2022/06/18 04:06:40;;;;;;;1.40;1.25;;;;;;;;;;5055907;28;20075;-86
2022/06/18 04:09:09;;;;;;;1.40;1.30;;;;;;;;;;5071507;22;20038;-90
2022/06/18 04:14:39;;;;;;;1.67;1.27;;;;;;;;;;4986182;28;20034;-91
2022/06/18 04:17:22;;;;;;;2.10;1.30;;;;;;;;;;4993239;28;20026;-90
2022/06/18 04:19:54;;;;;;;3.60;1.42;;;;;;;;;;4974118;28;20338;-91
2022/06/18 04:22:50;;;;;;;3.45;1.45;;;;;;;;;;4974479;28;20051;-88
2022/06/18 04:28:12;;;;;;;1.90;1.40;;;;;;;;;;4991669;28;20050;-92
2022/06/18 04:31:08;;;;;;;1.92;1.30;;;;;;;;;;4986749;28;20043;-90
2022/06/18 04:33:45;;;;;;;4.05;1.48;;;;;;;;;;4991475;28;20058;-87
2022/06/18 04:36:36;;;;;;;2.45;1.50;;;;;;;;;;4989139;28;20037;-89
2022/06/18 04:39:14;;;;;;;3.40;1.30;;;;;;;;;;4989065;28;20034;-91
2022/06/18 04:41:46;;;;;;;1.77;1.40;;;;;;;;;;4988765;28;20027;-89
2022/06/18 04:44:22;;;;;;;3.28;1.42;;;;;;;;;;4974188;28;20026;-91
2022/06/18 04:46:50;;;;;;;1.33;1.13;;;;;;;;;;4982918;28;20031;-91
2022/06/18 04:49:19;;;;;;;1.83;1.20;;;;;;;;;;5003098;28;20475;-91
2022/06/18 04:51:58;;;;;;;2.47;1.23;;;;;;;;;;4988510;28;20033;-91
2022/06/18 04:54:26;;;;;;;3.35;1.25;;;;;;;;;;4988808;28;20115;-89
2022/06/18 04:57:04;;;;;;;2.95;1.35;;;;;;;;;;4988548;28;20026;-91
2022/06/18 04:59:41;;;;;;;1.35;1.15;;;;;;;;;;4973542;28;20022;-89
2022/06/18 05:02:48;;;;;;;2.08;1.00;;;;;;;;;;4972027;28;20471;-89
2022/06/18 05:12:17;;;;;;;;;;;;;;;;;;;;;
2022/06/18 05:14:43;;;;;;;2.05;1.30;;;;;;;;;;4880692;29;20046;-89
2022/06/18 05:17:25;;;;;;;;;;;;;;;;;;;;;
2022/06/18 05:20:03;;;;;;;1.85;1.25;;;;;;;;;;4973221;28;20026;-90
2022/06/18 05:22:34;;;;;;;1.77;1.33;;;;;;;;;;4973112;28;20027;-90
2022/06/18 05:25:12;;;;;;;1.63;1.50;;;;;;;;;;4977740;28;20102;-92
2022/06/18 05:27:45;;;;;;;2.88;1.80;;;;;;;;;;4979556;28;20031;-90
2022/06/18 05:30:25;;;;;;;2.65;1.60;;;;;;;;;;4973444;28;20031;-87
2022/06/18 05:32:52;;;;;;;3.67;1.45;;;;;;;;;;4976242;28;20045;-90
2022/06/18 05:35:27;;;;;;;2.13;1.30;;;;;;;;;;4976021;28;20031;-90
2022/06/18 05:38:05;;;;;;;3.00;1.83;;;;;;;;;;4977451;28;20027;-90
2022/06/18 05:40:34;;;;;;;3.00;1.60;;;;;;;;;;4976067;28;20023;-88
2022/06/18 05:43:03;;;;;;;2.08;1.17;;;;;;;;;;4976330;28;20064;-90
2022/06/18 05:45:30;;;;;;;1.95;1.50;;;;;;;;;;4976813;28;20050;-90
2022/06/18 05:48:05;;;;;;;1.58;1.30;;;;;;;;;;4976189;28;20039;-91
2022/06/18 05:50:39;;;;;;;3.83;1.20;;;;;;;;;;4976870;28;20027;-89
2022/06/18 05:53:10;;;;;;;3.72;1.50;;;;;;;;;;4976847;28;20031;-90
2022/06/18 05:55:42;;;;;;;1.30;1.20;;;;;;;;;;4975641;28;20062;-90
2022/06/18 05:58:15;;;;;;;2.40;1.60;;;;;;;;;;5002309;23;20045;-90
2022/06/18 06:01:03;;;;;;;1.80;1.20;;;;;;;;;;5034380;28;20033;-90
2022/06/18 06:03:56;;;;;;;2.50;1.60;;;;;;;;;;5018179;28;20409;-90
2022/06/18 06:06:28;;;;;;;2.83;1.45;;;;;;;;;;5034866;28;20033;-90
2022/06/18 06:09:13;;;;;;;3.65;1.27;;;;;;;;;;5018098;28;20064;-92
2022/06/18 06:12:04;;;;;;;1.60;1.40;;;;;;;;;;5017565;28;20128;-91
2022/06/18 06:15:04;;;;;;;3.25;1.27;;;;;;;;;;5035616;28;20045;-91
2022/06/18 06:17:32;;;;;;;2.38;1.50;;;;;;;;;;5017132;28;20404;-88
2022/06/18 06:20:09;;;;;;;2.50;1.52;;;;;;;;;;5018005;28;20022;-90
2022/06/18 06:22:40;;;;;;;3.38;1.40;;;;;;;;;;5017954;28;20060;-89
2022/06/18 06:25:21;;;;;;;2.50;1.58;;;;;;;;;;5035163;28;20060;-90
2022/06/18 06:27:55;;;;;;;;;;;;;;;;;;5018011;28;20029;-91
2022/06/18 06:30:24;;;;;;;1.50;1.38;;;;;;;;;;5035873;28;19913;-89
2022/06/18 06:36:09;;;;;;;2.70;1.58;;;;;;;;;;5035834;28;20062;-91
2022/06/18 06:39:07;;;;;;;1.90;1.70;;;;;;;;;;5017374;28;20053;-90
2022/06/18 06:41:48;;;;;;;3.13;1.50;;;;;;;;;;5016978;28;20544;-89
2022/06/18 06:44:18;;;;;;;2.45;1.50;;;;;;;;;;5035310;28;20117;-90
2022/06/18 06:46:59;;;;;;;3.38;1.30;;;;;;;;;;5034646;28;20036;-90
2022/06/18 06:49:32;;;;;;;2.10;1.20;;;;;;;;;;5017454;28;20025;-91
2022/06/18 06:52:23;;;;;;;2.35;1.10;;;;;;;;;;5038946;28;20083;-90
2022/06/18 06:57:57;;;;;;;3.50;1.33;;;;;;;;;;5038996;28;20083;-91
2022/06/18 07:00:31;;;;;;;4.15;1.67;;;;;;;;;;5035758;28;20025;-92
2022/06/18 07:02:57;;;;;;;3.63;1.17;;;;;;;;;;5034898;28;20057;-90
2022/06/18 07:05:26;;;;;;;2.38;1.40;;;;;;;;;;5017818;28;20033;-91
2022/06/18 07:11:11;;;;;;;1.92;1.35;;;;;;;;;;4977079;28;20026;-91
2022/06/18 07:13:58;;;;;;;2.00;1.17;;;;;;;;;;5021544;28;20507;-91
2022/06/18 07:16:30;;;;;;;1.48;1.20;;;;;;;;;;5012277;28;20037;-90
2022/06/18 07:19:09;;;;;;;2.47;1.23;;;;;;;;;;5000769;28;20099;-92
2022/06/18 07:21:52;;;;;;;2.00;1.42;;;;;;;;;;5017415;28;20017;-92
2022/06/18 07:27:37;;;;;;;;;;;;;;;;;;;;;
2022/06/18 07:30:13;;;;;;;1.42;1.33;;;;;;;;;;5025307;28;20036;-90
2022/06/18 07:32:55;;;;;;;3.10;1.40;;;;;;;;;;5045788;28;20045;-91
2022/06/18 07:35:29;;;;;;;2.95;1.40;;;;;;;;;;5019403;28;20025;-89
2022/06/18 07:38:00;;;;;;;1.75;1.17;;;;;;;;;;5017971;28;20117;-91
2022/06/18 07:40:47;;;;;;;2.55;1.10;;;;;;;;;;5033417;28;20049;-90
2022/06/18 07:46:24;;;;;;;3.60;1.10;;;;;;;;;;4988993;28;20515;-90
2022/06/18 07:51:45;;;;;;;2.58;1.15;;;;;;;;;;5014140;28;20073;-90
2022/06/18 07:54:30;;;;;;;1.77;1.20;;;;;;;;;;4996000;28;20018;-91
2022/06/18 07:57:18;;;;;;;5.22;1.58;;;;;;;;;;4996274;28;20030;-90
2022/06/18 08:00:07;;;;;;;2.30;1.40;;;;;;;;;;4996090;28;20096;-89
2022/06/18 08:05:25;;;;;;;3.40;1.60;;;;;;;;;;4981926;28;20264;-90
2022/06/18 08:07:53;;;;;;;4.53;1.65;;;;;;;;;;4995895;28;20026;-90
2022/06/18 08:10:36;;;;;;;2.00;1.25;;;;;;;;;;4997110;28;20030;-91
2022/06/18 08:13:12;;;;;;;1.98;1.30;;;;;;;;;;4996701;28;20053;-92
2022/06/18 08:15:41;;;;;;;1.73;1.23;;;;;;;;;;5006282;28;20026;-91
2022/06/18 08:18:14;;;;;;;4.43;1.50;;;;;;;;;;4998040;28;20022;-91
2022/06/18 08:20:52;;;;;;;2.10;1.20;;;;;;;;;;5029955;28;20030;-91
2022/06/18 08:23:27;;;;;;;3.65;1.33;;;;;;;;;;5015615;28;20112;-92
2022/06/18 08:25:56;;;;;;;1.77;1.00;;;;;;;;;;5016037;28;20045;-92
2022/06/18 08:28:38;;;;;;;3.17;1.30;;;;;;;;;;5016749;28;20566;-92
2022/06/18 08:31:10;;;;;;;4.15;1.20;;;;;;;;;;5036859;28;20033;-92
2022/06/18 08:34:03;;;;;;;2.15;1.17;;;;;;;;;;5036037;28;20025;-92
2022/06/18 08:36:44;;;;;;;3.15;0.77;;;;;;;;;;5052121;28;20017;-91
2022/06/18 08:39:13;;;;;;;3.35;1.23;;;;;;;;;;5043909;28;20622;-89
2022/06/18 08:42:08;;;;;;;0.80;0.77;;;;;;;;;;5014097;28;20041;-90
2022/06/18 08:44:55;;;;;;;1.23;0.80;;;;;;;;;;5032444;28;20066;-90
2022/06/18 08:47:43;;;;;;;1.27;0.90;;;;;;;;;;5014514;28;20464;-90
2022/06/18 08:50:36;;;;;;;1.25;0.82;;;;;;;;;;5015162;28;20022;-90
2022/06/18 08:59:42;;;;;;;;;;;;;;;;;;;;;
2022/06/18 09:02:21;;;;;;;2.25;0.82;;;;;;;;;;5047626;28;20080;-90
2022/06/18 09:05:03;;;;;;;2.35;1.10;;;;;;;;;;5056846;28;20005;-92
2022/06/18 09:07:54;;;;;;;2.42;1.00;;;;;;;;;;5038914;28;20013;-91
2022/06/18 09:10:41;;;;;;;1.45;1.25;;;;;;;;;;5056185;28;20060;-90
2022/06/18 09:13:30;;;;;;;3.65;1.52;;;;;;;;;;5051812;28;20021;-88
2022/06/18 09:16:02;;;;;;;1.15;1.00;;;;;;;;;;5013933;28;20029;-87
2022/06/18 09:19:06;;;;;;;;;;;;;;;;;;;;;
2022/06/18 09:25:02;;;;;;;2.60;1.08;;;;;;;;;;4984779;28;20082;-89
2022/06/18 09:27:49;;;;;;;7.72;1.30;;;;;;;;;;4990532;28;20038;-89
2022/06/18 09:30:24;;;;;;;2.20;1.08;;;;;;;;;;4976257;28;20027;-90
2022/06/18 09:33:12;;;;;;;3.17;1.92;;;;;;;;;;4977596;28;20034;-88
2022/06/18 09:39:08;;;;;;;1.90;0.95;;;;;;;;;;5000701;28;20031;-90
2022/06/18 09:41:43;;;;;;;2.75;1.10;;;;;;;;;;4974557;28;20109;-89
2022/06/18 09:44:20;;;;;;;8.50;1.67;;;;;;;;;;4995875;28;20034;-91
2022/06/18 09:47:13;;;;;;;3.72;1.08;;;;;;;;;;4993970;28;20069;-91
2022/06/18 09:49:51;;;;;;;7.43;1.40;;;;;;;;;;5010216;23;20041;-92
2022/06/18 09:52:26;;;;;;;2.53;1.20;;;;;;;;;;5032123;28;20063;-91
2022/06/18 09:55:18;;;;;;;4.18;1.25;;;;;;;;;;5034862;28;20595;-91
2022/06/18 09:57:57;;;;;;;3.83;1.45;;;;;;;;;;5034938;28;20026;-92
2022/06/18 10:00:36;;;;;;;3.33;1.13;;;;;;;;;;5015279;28;20018;-92
2022/06/18 10:03:08;;;;;;;9.07;1.42;;;;;;;;;;5030799;28;20033;-91
2022/06/18 10:08:28;;;;;;;2.22;1.55;;;;;;;;;;5057881;22;20133;-89
2022/06/18 10:11:07;;;;;;;1.55;0.95;;;;;;;;;;5007615;28;20026;-88
2022/06/18 10:13:43;;;;;;;5.28;1.38;;;;;;;;;;5006495;28;20516;-87
2022/06/18 10:16:41;;;;;;;3.83;1.45;;;;;;;;;;5014545;28;20447;-86
2022/06/18 10:22:09;;;;;;;3.75;1.20;;;;;;;;;;4957373;28;20041;-89
2022/06/18 10:24:44;;;;;;;3.80;1.42;;;;;;;;;;5005953;28;20107;-86
2022/06/18 10:27:22;;;;;;;5.18;1.40;;;;;;;;;;4999259;28;20033;-89
2022/06/18 10:29:51;;;;;;;2.20;1.45;;;;;;;;;;5015833;28;20108;-87
2022/06/18 10:32:29;;;;;;;7.50;2.28;;;;;;;;;;5013315;28;20037;-87
2022/06/18 10:34:59;;;;;;;9.38;1.63;;;;;;;;;;5015710;28;20034;-89
2022/06/18 10:37:45;;;;;;;9.50;1.48;;;;;;;;;;5016118;28;20022;-87
2022/06/18 10:40:22;;;;;;;10.27;1.45;;;;;;;;;;5014415;28;20109;-89
2022/06/18 10:43:09;;;;;;;9.20;2.08;;;;;;;;;;5018211;28;20021;-89
2022/06/18 10:45:57;;;;;;;11.95;1.75;;;;;;;;;;5035182;28;20116;-88
2022/06/18 10:48:28;;;;;;;10.93;1.83;;;;;;;;;;5017042;28;20485;-89
2022/06/18 10:50:58;;;;;;;11.50;2.28;;;;;;;;;;5017033;28;20432;-90
2022/06/18 10:53:56;;;;;;;;;;;;;;;;;;;;;
2022/06/18 10:56:28;;;;;;;10.75;1.80;;;;;;;;;;5034366;28;20056;-89
2022/06/18 10:59:15;;;;;;;23.27;2.45;;;;;;;;;;5016773;28;20029;-89
2022/06/18 11:01:46;;;;;;;21.00;3.25;;;;;;;;;;5031455;28;20095;-89
2022/06/18 11:04:31;;;;;;;14.00;2.08;;;;;;;;;;5034003;28;20025;-89
2022/06/18 11:07:04;;;;;;;13.07;3.83;;;;;;;;;;5034097;28;20022;-89
2022/06/18 11:09:57;;;;;;;10.02;1.77;;;;;;;;;;5019363;28;20121;-89
2022/06/18 11:12:34;;;;;;;5.80;1.80;;;;;;;;;;5029150;28;20481;-88
2022/06/18 11:15:19;;;;;;;11.65;1.42;;;;;;;;;;5029873;28;20022;-90
2022/06/18 11:17:45;;;;;;;6.00;1.42;;;;;;;;;;5027374;28;20040;-89
2022/06/18 11:20:27;;;;;;;12.27;1.92;;;;;;;;;;5021069;28;20034;-88
2022/06/18 11:23:02;;;;;;;8.98;1.73;;;;;;;;;;5016462;28;20054;-89
2022/06/18 11:25:31;;;;;;;10.82;2.08;;;;;;;;;;4993765;28;20038;-89
2022/06/18 11:28:08;;;;;;;8.60;1.70;;;;;;;;;;4994195;28;20037;-89
2022/06/18 11:30:40;;;;;;;5.88;1.48;;;;;;;;;;4975975;28;20022;-89
2022/06/18 11:33:32;;;;;;;9.82;2.28;;;;;;;;;;4994454;28;20050;-89
2022/06/18 11:36:09;;;;;;;8.55;2.35;;;;;;;;;;4977253;28;20018;-89
2022/06/18 11:38:41;;;;;;;16.42;2.03;;;;;;;;;;4994077;28;20418;-89
2022/06/18 11:41:19;;;;;;;8.98;1.63;;;;;;;;;;4994654;28;20018;-89
2022/06/18 11:44:05;;;;;;;12.45;1.90;;;;;;;;;;4976833;28;20022;-90
2022/06/18 11:46:39;;;;;;;7.38;1.67;;;;;;;;;;4994576;28;20022;-89
2022/06/18 11:49:12;;;;;;;14.77;2.53;;;;;;;;;;4985571;28;20066;-89
2022/06/18 11:52:04;;;;;;;14.77;2.47;;;;;;;;;;5004463;28;20442;-90
2022/06/18 11:54:39;;;;;;;14.15;2.38;;;;;;;;;;4992553;28;20044;-89
2022/06/18 11:57:24;;;;;;;15.68;3.00;;;;;;;;;;4995987;28;20049;-89
2022/06/18 11:59:53;;;;;;;16.13;2.42;;;;;;;;;;4978230;28;20372;-90
2022/06/18 12:02:29;;;;;;;15.23;2.42;;;;;;;;;;4977233;28;20133;-89
2022/06/18 12:05:06;;;;;;;22.35;2.60;;;;;;;;;;4977669;28;20061;-90
2022/06/18 12:07:48;;;;;;;17.38;2.10;;;;;;;;;;4994283;28;20057;-89
2022/06/18 12:10:17;;;;;;;18.08;3.00;;;;;;;;;;4976721;28;20487;-90
2022/06/18 12:12:43;;;;;;;19.35;2.70;;;;;;;;;;4994362;28;20033;-90
2022/06/18 12:15:18;;;;;;;19.38;3.55;;;;;;;;;;4977297;28;20030;-89
2022/06/18 12:17:46;;;;;;;17.10;2.63;;;;;;;;;;5002561;28;20448;-90
2022/06/18 12:20:34;;;;;;;21.05;2.63;;;;;;;;;;5023627;28;20508;-89
2022/06/18 12:23:29;;;;;;;18.85;2.88;;;;;;;;;;5021391;28;20029;-90
2022/06/18 12:26:08;;;;;;;16.35;2.50;;;;;;;;;;5015967;28;20114;-89
2022/06/18 12:28:34;;;;;;;17.40;3.00;;;;;;;;;;5012344;28;20124;-88
2022/06/18 12:31:10;;;;;;;18.73;2.70;;;;;;;;;;5012059;28;20030;-87
2022/06/18 12:33:39;;;;;;;16.98;3.10;;;;;;;;;;5013612;28;20050;-87
2022/06/18 12:36:12;;;;;;;20.92;2.42;;;;;;;;;;5013572;28;20394;-86
2022/06/18 12:39:07;;;;;;;13.38;2.20;;;;;;;;;;5014284;28;20022;-87
2022/06/18 12:41:39;;;;;;;25.30;2.65;;;;;;;;;;4992706;28;20034;-87
2022/06/18 12:44:42;;;;;;;13.07;2.53;;;;;;;;;;5013108;28;20026;-88
2022/06/18 12:47:20;;;;;;;15.85;2.38;;;;;;;;;;5011558;28;20061;-87
2022/06/18 12:49:46;;;;;;;21.23;3.00;;;;;;;;;;5012087;28;20026;-87
2022/06/18 12:52:33;;;;;;;18.13;2.80;;;;;;;;;;5011731;28;20080;-88
2022/06/18 12:55:10;;;;;;;28.80;2.67;;;;;;;;;;5012976;28;20033;-88
2022/06/18 12:57:52;;;;;;;18.15;3.20;;;;;;;;;;5012053;28;20057;-88
2022/06/18 13:00:20;;;;;;;18.27;2.50;;;;;;;;;;5011919;28;20029;-88
2022/06/18 13:03:05;;;;;;;15.57;2.80;;;;;;;;;;5012077;28;20034;-89
2022/06/18 13:05:43;;;;;;;14.70;2.72;;;;;;;;;;5011276;28;20030;-88
2022/06/18 13:08:09;;;;;;;25.58;2.95;;;;;;;;;;5010930;28;20046;-89
2022/06/18 13:10:56;;;;;;;21.90;3.08;;;;;;;;;;5011043;28;20029;-87
2022/06/18 13:13:31;;;;;;;22.70;3.28;;;;;;;;;;5012376;28;20036;-88
2022/06/18 13:16:05;;;;;;;19.00;3.50;;;;;;;;;;5011255;28;20022;-87
2022/06/18 13:18:39;;;;;;;17.33;3.42;;;;;;;;;;5014843;28;20076;-87
2022/06/18 13:21:07;;;;;;;24.20;3.00;;;;;;;;;;5024154;28;20033;-86
2022/06/18 13:29:18;;;;;;;17.98;3.25;;;;;;;;;;5032512;28;20064;-87
2022/06/18 13:31:50;;;;;;;17.70;2.72;;;;;;;;;;5013924;28;20053;-87
2022/06/18 13:34:24;;;;;;;13.82;2.60;;;;;;;;;;5031635;28;20029;-87
2022/06/18 13:37:08;;;;;;;19.63;3.20;;;;;;;;;;5014208;28;20033;-87
2022/06/18 13:39:42;;;;;;;11.38;2.42;;;;;;;;;;5014608;28;20634;-86
2022/06/18 13:42:40;;;;;;;21.83;2.75;;;;;;;;;;5031495;28;20041;-88
2022/06/18 13:45:09;;;;;;;15.73;2.75;;;;;;;;;;4968459;28;20108;-86
2022/06/18 13:47:56;;;;;;;20.02;3.53;;;;;;;;;;5055721;28;20018;-85
2022/06/18 13:50:49;;;;;;;18.70;2.65;;;;;;;;;;5026943;28;20040;-86
2022/06/18 13:53:32;;;;;;;15.07;2.30;;;;;;;;;;5031240;28;20132;-86
2022/06/18 13:55:58;;;;;;;15.20;2.78;;;;;;;;;;5018961;28;20057;-87
2022/06/18 13:58:26;;;;;;;13.40;2.60;;;;;;;;;;5036235;28;20112;-88
2022/06/18 14:01:06;;;;;;;20.48;2.70;;;;;;;;;;5018064;28;20025;-88
2022/06/18 14:03:32;;;;;;;;;;;;;;;;;;5018579;28;20036;-88
2022/06/18 14:06:01;;;;;;;18.58;2.78;;;;;;;;;;5017308;28;19905;-88
2022/06/18 14:08:55;;;;;;;22.80;2.58;;;;;;;;;;5023776;28;20030;-88
2022/06/18 14:11:35;;;;;;;14.73;3.03;;;;;;;;;;5024657;28;20034;-88
2022/06/18 14:14:10;;;;;;;16.33;2.95;;;;;;;;;;4979837;28;20041;-86
2022/06/18 14:16:57;;;;;;;18.33;3.50;;;;;;;;;;4987821;28;20051;-87
2022/06/18 14:19:23;;;;;;;14.32;2.50;;;;;;;;;;5012229;28;20112;-88
2022/06/18 14:21:59;;;;;;;11.75;2.72;;;;;;;;;;5020651;28;20042;-87
2022/06/18 14:24:39;;;;;;;16.00;2.58;;;;;;;;;;5034060;28;20025;-87
2022/06/18 14:27:19;;;;;;;16.17;2.90;;;;;;;;;;5021343;28;20018;-87
2022/06/18 14:29:45;;;;;;;26.02;3.30;;;;;;;;;;5021661;28;20026;-87
2022/06/18 14:32:15;;;;;;;23.92;3.22;;;;;;;;;;5041550;28;20040;-87
2022/06/18 14:34:53;;;;;;;20.35;2.90;;;;;;;;;;5024473;28;20017;-87
2022/06/18 14:37:23;;;;;;;23.60;3.15;;;;;;;;;;5023564;28;20025;-86
2022/06/18 14:39:56;;;;;;;19.37;2.77;;;;;;;;;;5039653;28;20104;-87
2022/06/18 14:42:43;;;;;;;16.20;3.35;;;;;;;;;;5019422;28;20093;-88
2022/06/18 14:45:31;;;;;;;21.88;2.92;;;;;;;;;;5019009;28;20378;-87
2022/06/18 14:48:02;;;;;;;20.90;2.78;;;;;;;;;;5038203;28;20045;-87
2022/06/18 14:50:44;;;;;;;17.70;3.00;;;;;;;;;;5021150;28;20026;-87
2022/06/18 14:53:29;;;;;;;11.05;2.65;;;;;;;;;;5022106;28;20485;-87
2022/06/18 14:56:10;;;;;;;16.90;2.92;;;;;;;;;;5022215;28;20440;-87
2022/06/18 14:58:45;;;;;;;15.65;2.20;;;;;;;;;;5021478;28;20033;-86
2022/06/18 15:01:30;;;;;;;18.38;3.22;;;;;;;;;;5018223;28;20493;-88
2022/06/18 15:04:25;;;;;;;24.42;3.15;;;;;;;;;;5035420;28;20036;-87
2022/06/18 15:06:51;;;;;;;23.63;3.72;;;;;;;;;;5017475;28;20055;-88
2022/06/18 15:09:37;;;;;;;15.45;2.97;;;;;;;;;;5016772;28;20076;-88
2022/06/18 15:12:09;;;;;;;14.88;2.70;;;;;;;;;;5034342;28;20033;-87
2022/06/18 15:14:40;;;;;;;17.13;3.20;;;;;;;;;;5017781;28;20026;-87
2022/06/18 15:17:28;;;;;;;18.95;2.90;;;;;;;;;;5009918;28;20025;-88
2022/06/18 15:25:35;;;;;;;21.02;2.72;;;;;;;;;;5028443;28;20010;-87
2022/06/18 15:28:06;;;;;;;20.17;2.45;;;;;;;;;;5029267;28;20040;-87
2022/06/18 15:30:35;;;;;;;19.45;3.20;;;;;;;;;;5016759;28;20034;-88
2022/06/18 15:33:06;;;;;;;19.35;2.92;;;;;;;;;;5014239;28;20095;-88
2022/06/18 15:35:34;;;;;;;33.35;3.22;;;;;;;;;;5015448;28;20099;-88
2022/06/18 15:38:01;;;;;;;18.95;3.38;;;;;;;;;;5013806;28;20026;-88
2022/06/18 15:40:40;;;;;;;17.65;2.75;;;;;;;;;;5014900;28;20061;-88
2022/06/18 15:43:27;;;;;;;17.67;2.40;;;;;;;;;;5013420;28;20032;-88
2022/06/18 15:45:58;;;;;;;20.67;3.42;;;;;;;;;;5013855;28;20407;-87
2022/06/18 15:48:52;;;;;;;19.55;3.15;;;;;;;;;;5014805;28;20040;-88
2022/06/18 15:51:30;;;;;;;;;;;;;;;;;;;;;
2022/06/18 15:54:21;;;;;;;18.52;2.47;;;;;;;;;;5015911;28;20025;-87
2022/06/18 15:56:53;;;;;;;16.42;2.65;;;;;;;;;;5014674;28;20112;-87
2022/06/18 15:59:24;;;;;;;17.35;2.88;;;;;;;;;;5015535;28;20022;-87
2022/06/18 16:01:53;;;;;;;22.63;4.05;;;;;;;;;;5016295;28;20022;-87
2022/06/18 16:04:20;;;;;;;20.43;3.20;;;;;;;;;;5013965;28;20040;-87
2022/06/18 16:06:53;;;;;;;15.13;2.90;;;;;;;;;;5013447;28;20109;-87
2022/06/18 16:09:19;;;;;;;9.57;2.38;;;;;;;;;;5049546;22;20056;-93
2022/06/18 17:41:33;;;;;;;7.90;2.55;;;;;;;;;;5059804;28;20049;-94
2022/06/18 17:44:11;;;;;;;9.88;2.53;;;;;;;;;;5063197;28;20047;-92
2022/06/18 17:46:37;;;;;;;14.48;2.97;;;;;;;;;;5061422;28;20021;-94
2022/06/18 17:49:04;;;;;;;13.50;3.03;;;;;;;;;;5063810;28;20075;-94
2022/06/18 17:51:38;;;;;;;13.10;2.65;;;;;;;;;;5058014;28;20025;-93
2022/06/18 17:54:04;;;;;;;12.25;3.00;;;;;;;;;;5053973;28;20056;-92
2022/06/18 17:56:32;;;;;;;11.43;2.47;;;;;;;;;;5054148;28;20396;-93
2022/06/18 17:58:59;;;;;;;19.20;2.90;;;;;;;;;;5053937;28;20040;-93
2022/06/18 21:41:20;;;;;;;14.25;4.00;;;;;;;;;;1131183;22;20300;-95
2022/06/18 21:44:08;;;;;;;11.30;3.65;;;;;;;;;;5044242;28;20053;-93
2022/06/18 21:46:38;;;;;;;8.20;3.13;;;;;;;;;;5027008;28;20037;-93
2022/06/18 21:49:06;;;;;;;13.10;3.13;;;;;;;;;;5029128;28;20034;-93